createdAt,value
2017-09-02T00:00:34.299Z,61.89
2017-09-02T00:03:01.680Z,61.94
2017-09-02T00:08:02.803Z,61.92
2017-09-02T00:10:30.185Z,62.02
2017-09-02T00:12:57.580Z,62.07
2017-09-02T00:15:24.961Z,61.62
2017-09-02T00:17:52.369Z,61.62
2017-09-02T00:20:19.750Z,61.66
2017-09-02T00:22:47.158Z,61.85
2017-09-02T00:25:14.543Z,61.96
2017-09-02T00:27:41.943Z,61.89
2017-09-02T00:30:09.337Z,61.52
2017-09-02T00:32:36.727Z,61.98
2017-09-02T00:35:04.115Z,62.17
2017-09-02T00:37:31.508Z,62.79
2017-09-02T00:39:58.897Z,62.81
2017-09-02T00:42:26.290Z,63.37
2017-09-02T00:44:53.682Z,63.45
2017-09-02T00:47:21.078Z,63.86
2017-09-02T00:49:48.466Z,64.28
2017-09-02T00:52:15.865Z,64.61
2017-09-02T00:54:43.243Z,64.27
2017-09-02T00:57:10.647Z,64.12
2017-09-02T00:59:38.038Z,63.87
2017-09-02T01:02:05.438Z,63.72
2017-09-02T01:04:32.842Z,63.45
2017-09-02T01:07:00.238Z,62.96
2017-09-02T01:09:27.622Z,63.30
2017-09-02T01:11:55.016Z,64.16
2017-09-02T01:14:22.406Z,64.36
2017-09-02T01:16:49.806Z,64.39
2017-09-02T01:19:17.195Z,64.64
2017-09-02T01:21:44.582Z,64.66
2017-09-02T01:24:11.977Z,64.46
2017-09-02T01:26:39.356Z,64.01
2017-09-02T01:29:06.747Z,64.03
2017-09-02T01:31:34.155Z,63.70
2017-09-02T01:34:01.547Z,63.64
2017-09-02T01:36:28.927Z,63.42
2017-09-02T01:38:56.319Z,63.40
2017-09-02T01:41:23.704Z,63.13
2017-09-02T01:43:51.091Z,63.66
2017-09-02T01:46:18.478Z,63.18
2017-09-02T01:48:45.876Z,63.92
2017-09-02T01:51:13.307Z,64.06
2017-09-02T01:53:40.715Z,64.29
2017-09-02T01:56:08.100Z,63.74
2017-09-02T01:58:35.501Z,63.69
2017-09-02T02:01:02.890Z,63.30
2017-09-02T02:03:30.315Z,63.35
2017-09-02T02:05:57.689Z,63.15
2017-09-02T02:08:25.091Z,63.24
2017-09-02T02:10:52.483Z,63.05
2017-09-02T02:13:19.870Z,63.60
2017-09-02T02:15:47.262Z,63.75
2017-09-02T02:18:14.646Z,63.36
2017-09-02T02:20:42.046Z,63.64
2017-09-02T02:23:09.431Z,63.55
2017-09-02T02:25:36.834Z,63.42
2017-09-02T02:28:04.219Z,62.88
2017-09-02T02:30:31.619Z,62.82
2017-09-02T02:32:59.003Z,62.86
2017-09-02T02:35:26.399Z,63.50
2017-09-02T02:37:53.787Z,63.35
2017-09-02T02:40:21.178Z,62.85
2017-09-02T02:42:48.570Z,63.60
2017-09-02T02:45:15.974Z,63.45
2017-09-02T02:47:43.356Z,63.39
2017-09-02T02:50:10.742Z,63.11
2017-09-02T02:52:38.164Z,63.38
2017-09-02T02:55:05.547Z,63.80
2017-09-02T02:57:32.955Z,63.80
2017-09-02T03:00:00.335Z,63.75
2017-09-02T03:02:27.727Z,64.37
2017-09-02T03:04:55.127Z,63.64
2017-09-02T03:07:22.526Z,63.67
2017-09-02T03:09:49.914Z,63.97
2017-09-02T03:12:17.301Z,63.89
2017-09-02T03:14:44.683Z,63.84
2017-09-02T03:17:12.079Z,63.93
2017-09-02T03:19:39.482Z,63.63
2017-09-02T03:22:06.868Z,64.49
2017-09-02T03:24:34.257Z,64.41
2017-09-02T03:27:01.650Z,64.36
2017-09-02T03:29:29.036Z,64.54
2017-09-02T03:31:56.434Z,64.32
2017-09-02T03:34:23.818Z,63.97
2017-09-02T03:36:51.215Z,63.99
2017-09-02T03:39:18.606Z,64.30
2017-09-02T03:41:45.999Z,64.24
2017-09-02T03:44:13.382Z,64.42
2017-09-02T03:46:40.773Z,64.51
2017-09-02T03:49:08.158Z,64.32
2017-09-02T03:51:35.576Z,64.33
2017-09-02T03:54:02.955Z,64.41
2017-09-02T03:56:30.342Z,64.33
2017-09-02T03:58:58.070Z,64.23
2017-09-02T04:01:25.462Z,64.18
2017-09-02T04:03:52.851Z,64.33
2017-09-02T04:06:20.271Z,64.40
2017-09-02T04:08:47.651Z,64.37
2017-09-02T04:11:15.048Z,64.14
2017-09-02T04:13:42.471Z,64.36
2017-09-02T04:16:09.856Z,64.13
2017-09-02T04:18:37.250Z,64.55
2017-09-02T04:21:04.635Z,64.04
2017-09-02T04:23:32.026Z,64.23
2017-09-02T04:25:59.415Z,64.04
2017-09-02T04:28:26.807Z,63.78
2017-09-02T04:30:54.191Z,63.57
2017-09-02T04:33:21.579Z,63.21
2017-09-02T04:35:48.972Z,63.71
2017-09-02T04:38:16.411Z,64.05
2017-09-02T04:40:43.814Z,64.22
2017-09-02T04:43:11.473Z,64.28
2017-09-02T04:45:38.872Z,64.41
2017-09-02T04:48:06.256Z,64.42
2017-09-02T04:50:33.647Z,64.74
2017-09-02T04:53:01.039Z,64.69
2017-09-02T04:55:28.430Z,64.72
2017-09-02T04:57:56.111Z,64.46
2017-09-02T05:00:23.510Z,64.36
2017-09-02T05:02:50.895Z,64.55
2017-09-02T05:05:18.291Z,64.93
2017-09-02T05:07:45.938Z,64.19
2017-09-02T05:10:13.326Z,64.68
2017-09-02T05:12:40.706Z,64.67
2017-09-02T05:15:08.105Z,64.80
2017-09-02T05:17:35.493Z,66.05
2017-09-02T05:20:03.114Z,65.97
2017-09-02T05:22:30.506Z,65.62
2017-09-02T05:24:57.907Z,66.00
2017-09-02T05:27:25.291Z,66.48
2017-09-02T05:29:52.711Z,66.16
2017-09-02T05:32:20.107Z,66.40
2017-09-02T05:34:47.490Z,67.09
2017-09-02T05:37:14.939Z,67.38
2017-09-02T05:39:42.315Z,67.06
2017-09-02T05:44:42.408Z,67.11
2017-09-02T05:47:09.802Z,67.10
2017-09-02T05:49:37.197Z,67.26
2017-09-02T05:52:04.595Z,67.06
2017-09-02T05:54:31.988Z,67.50
2017-09-02T05:56:59.386Z,68.15
2017-09-02T05:59:26.779Z,68.23
2017-09-02T06:01:54.189Z,69.05
2017-09-02T06:04:21.579Z,69.13
2017-09-02T06:06:48.974Z,69.06
2017-09-02T06:09:16.366Z,68.86
2017-09-02T06:11:43.771Z,69.37
2017-09-02T06:14:11.174Z,70.24
2017-09-02T06:16:38.564Z,69.35
2017-09-02T06:19:05.959Z,70.49
2017-09-02T06:21:33.358Z,70.26
2017-09-02T06:24:00.780Z,69.88
2017-09-02T06:26:28.183Z,70.77
2017-09-02T06:28:55.566Z,70.39
2017-09-02T06:31:22.975Z,69.53
2017-09-02T06:33:50.367Z,70.23
2017-09-02T06:36:17.776Z,70.43
2017-09-02T06:38:45.167Z,70.67
2017-09-02T06:41:12.555Z,70.20
2017-09-02T06:43:39.951Z,70.73
2017-09-02T06:46:07.343Z,70.96
2017-09-02T06:48:34.749Z,69.98
2017-09-02T06:51:02.157Z,69.62
2017-09-02T06:53:29.849Z,69.00
2017-09-02T06:55:57.265Z,70.23
2017-09-02T06:58:24.678Z,69.89
2017-09-02T07:00:52.071Z,69.67
2017-09-02T07:03:19.464Z,69.41
2017-09-02T07:05:46.870Z,69.25
2017-09-02T07:08:14.267Z,69.39
2017-09-02T07:10:41.669Z,69.32
2017-09-02T07:13:09.302Z,69.77
2017-09-02T07:15:36.693Z,70.69
2017-09-02T07:18:04.087Z,70.60
2017-09-02T07:20:31.530Z,70.01
2017-09-02T07:22:58.930Z,69.40
2017-09-02T07:25:26.582Z,69.83
2017-09-02T07:27:53.975Z,70.51
2017-09-02T07:30:21.598Z,69.92
2017-09-02T07:32:48.996Z,69.83
2017-09-02T07:35:16.379Z,70.28
2017-09-02T07:37:43.782Z,69.92
2017-09-02T07:40:11.162Z,69.72
2017-09-02T07:42:38.564Z,69.25
2017-09-02T07:45:05.958Z,69.60
2017-09-02T07:47:33.358Z,69.47
2017-09-02T07:50:00.748Z,69.31
2017-09-02T07:52:28.138Z,69.58
2017-09-02T07:54:55.538Z,68.37
2017-09-02T07:57:22.945Z,68.35
2017-09-02T07:59:50.322Z,67.88
2017-09-02T08:02:17.706Z,68.01
2017-09-02T08:04:45.106Z,67.58
2017-09-02T08:07:12.790Z,66.84
2017-09-02T08:09:40.186Z,66.88
2017-09-02T08:12:07.580Z,66.29
2017-09-02T08:14:34.970Z,67.08
2017-09-02T08:17:02.355Z,66.26
2017-09-02T08:19:29.783Z,66.02
2017-09-02T08:21:57.179Z,66.03
2017-09-02T08:24:24.570Z,65.27
2017-09-02T08:26:51.962Z,65.90
2017-09-02T08:29:19.357Z,64.86
2017-09-02T08:31:46.743Z,65.32
2017-09-02T08:34:14.134Z,65.63
2017-09-02T08:36:41.536Z,66.36
2017-09-02T08:39:08.930Z,65.43
2017-09-02T08:41:36.330Z,64.16
2017-09-02T08:44:03.967Z,64.55
2017-09-02T08:46:31.346Z,62.67
2017-09-02T08:48:58.738Z,63.06
2017-09-02T08:51:26.141Z,62.65
2017-09-02T08:53:53.535Z,61.90
2017-09-02T08:56:20.943Z,60.47
2017-09-02T08:58:48.332Z,58.26
2017-09-02T09:01:15.741Z,59.61
2017-09-02T09:03:43.106Z,57.18
2017-09-02T09:06:10.504Z,56.71
2017-09-02T09:08:37.882Z,57.77
2017-09-02T09:11:05.288Z,57.94
2017-09-02T09:13:32.664Z,60.48
2017-09-02T09:16:00.619Z,59.21
2017-09-02T09:18:28.004Z,58.44
2017-09-02T09:20:55.403Z,58.10
2017-09-02T09:23:22.783Z,56.02
2017-09-02T09:25:50.187Z,57.43
2017-09-02T09:28:17.575Z,55.53
2017-09-02T09:30:44.972Z,56.20
2017-09-02T09:33:12.355Z,56.47
2017-09-02T09:35:39.749Z,56.23
2017-09-02T09:38:07.132Z,56.73
2017-09-02T09:40:34.555Z,53.67
2017-09-02T09:43:01.937Z,52.00
2017-09-02T09:45:29.330Z,53.18
2017-09-02T09:47:56.723Z,55.21
2017-09-02T09:50:24.114Z,55.15
2017-09-02T09:52:51.499Z,56.24
2017-09-02T09:55:18.890Z,55.83
2017-09-02T09:57:46.279Z,57.24
2017-09-02T10:00:13.682Z,57.64
2017-09-02T10:02:41.064Z,57.75
2017-09-02T10:05:08.649Z,58.56
2017-09-02T10:07:36.014Z,59.60
2017-09-02T10:10:03.417Z,59.88
2017-09-02T10:12:30.823Z,59.68
2017-09-02T10:14:58.226Z,60.15
2017-09-02T10:17:25.606Z,59.72
2017-09-02T10:19:53.012Z,57.78
2017-09-02T10:22:20.394Z,58.34
2017-09-02T10:24:47.786Z,57.65
2017-09-02T10:27:15.166Z,57.17
2017-09-02T10:29:42.550Z,56.22
2017-09-02T10:32:09.972Z,56.38
2017-09-02T10:34:37.327Z,56.01
2017-09-02T10:37:04.723Z,56.00
2017-09-02T10:39:32.115Z,55.33
2017-09-02T10:41:59.508Z,55.65
2017-09-02T10:44:26.898Z,55.41
2017-09-02T10:46:54.291Z,56.04
2017-09-02T10:49:21.677Z,56.78
2017-09-02T10:51:49.071Z,56.09
2017-09-02T10:54:16.455Z,55.70
2017-09-02T10:56:43.853Z,54.88
2017-09-02T10:59:11.523Z,51.80
2017-09-02T11:01:38.926Z,50.68
2017-09-02T11:04:06.305Z,49.54
2017-09-02T11:06:33.691Z,49.15
2017-09-02T11:09:01.091Z,47.53
2017-09-02T11:11:28.470Z,46.48
2017-09-02T11:13:55.854Z,47.62
2017-09-02T11:16:23.268Z,47.28
2017-09-02T11:18:50.647Z,46.93
2017-09-02T11:21:18.039Z,46.40
2017-09-02T11:23:45.436Z,48.62
2017-09-02T11:26:12.830Z,48.01
2017-09-02T11:28:40.246Z,46.40
2017-09-02T11:31:07.630Z,46.91
2017-09-02T11:33:35.032Z,46.44
2017-09-02T11:36:02.658Z,48.20
2017-09-02T11:38:30.051Z,47.62
2017-09-02T11:40:57.435Z,48.27
2017-09-02T11:43:24.822Z,47.68
2017-09-02T11:45:52.210Z,47.56
2017-09-02T11:48:19.599Z,46.76
2017-09-02T11:50:46.978Z,46.65
2017-09-02T11:53:14.376Z,46.18
2017-09-02T11:55:41.763Z,47.48
2017-09-02T11:58:09.161Z,46.41
2017-09-02T12:00:36.542Z,47.12
2017-09-02T12:03:03.937Z,45.67
2017-09-02T12:05:31.322Z,45.36
2017-09-02T12:07:58.930Z,44.64
2017-09-02T12:10:26.339Z,44.18
2017-09-02T12:12:53.736Z,43.71
2017-09-02T12:15:21.134Z,43.44
2017-09-02T12:17:48.507Z,42.75
2017-09-02T12:20:15.962Z,42.30
2017-09-02T12:22:43.347Z,42.14
2017-09-02T12:25:10.739Z,42.33
2017-09-02T12:27:38.133Z,43.41
2017-09-02T12:30:05.532Z,42.95
2017-09-02T12:32:32.916Z,44.24
2017-09-02T12:35:00.311Z,43.39
2017-09-02T12:37:27.955Z,42.85
2017-09-02T12:39:55.610Z,43.14
2017-09-02T12:42:23.017Z,42.86
2017-09-02T12:44:50.390Z,42.19
2017-09-02T12:47:17.778Z,41.71
2017-09-02T12:49:45.439Z,41.90
2017-09-02T12:52:12.834Z,40.97
2017-09-02T12:54:40.237Z,40.73
2017-09-02T12:57:07.616Z,39.44
2017-09-02T12:59:35.019Z,39.42
2017-09-02T13:02:02.404Z,41.00
2017-09-02T13:04:29.806Z,41.81
2017-09-02T13:06:57.190Z,42.41
2017-09-02T13:09:24.570Z,43.50
2017-09-02T13:11:51.969Z,43.08
2017-09-02T13:14:19.361Z,41.92
2017-09-02T13:16:46.747Z,40.30
2017-09-02T13:19:14.331Z,40.01
2017-09-02T13:21:41.727Z,40.13
2017-09-02T13:24:09.123Z,41.12
2017-09-02T13:26:36.524Z,43.28
2017-09-02T13:29:03.906Z,42.96
2017-09-02T13:31:31.304Z,43.40
2017-09-02T13:33:58.947Z,45.25
2017-09-02T13:36:26.336Z,45.34
2017-09-02T13:38:53.739Z,45.09
2017-09-02T13:41:21.144Z,45.40
2017-09-02T13:43:48.730Z,49.07
2017-09-02T13:46:16.141Z,50.38
2017-09-02T13:48:43.739Z,51.13
2017-09-02T13:51:11.144Z,52.77
2017-09-02T13:53:38.519Z,54.03
2017-09-02T13:56:05.908Z,53.98
2017-09-02T13:58:33.304Z,53.82
2017-09-02T14:01:00.705Z,53.42
2017-09-02T14:03:28.106Z,54.86
2017-09-02T14:05:55.498Z,54.13
2017-09-02T14:08:22.891Z,53.28
2017-09-02T14:10:50.295Z,53.64
2017-09-02T14:13:17.689Z,52.64
2017-09-02T14:47:16.010Z,48.18
2017-09-02T14:49:43.483Z,48.27
2017-09-02T14:52:11.035Z,47.72
2017-09-02T14:54:38.423Z,45.67
2017-09-02T14:57:05.818Z,44.49
2017-09-02T14:59:33.218Z,45.24
2017-09-02T15:02:00.606Z,44.78
2017-09-02T15:04:28.006Z,42.64
2017-09-02T15:06:55.391Z,44.24
2017-09-02T15:09:22.789Z,42.47
2017-09-02T15:11:50.171Z,42.65
2017-09-02T15:14:17.562Z,40.90
2017-09-02T15:16:45.043Z,39.75
2017-09-02T15:19:12.435Z,40.06
2017-09-02T15:21:39.824Z,39.94
2017-09-02T15:24:07.223Z,40.77
2017-09-02T15:26:34.611Z,40.17
2017-09-02T15:29:02.058Z,40.40
2017-09-02T15:31:29.462Z,40.42
2017-09-02T15:33:56.888Z,39.97
2017-09-02T15:36:24.327Z,40.24
2017-09-02T15:38:51.818Z,39.16
2017-09-02T15:41:19.258Z,38.34
2017-09-02T15:43:46.651Z,40.51
2017-09-02T15:46:14.073Z,41.75
2017-09-02T15:48:41.450Z,41.38
2017-09-02T15:51:09.401Z,40.91
2017-09-02T15:53:37.280Z,41.17
2017-09-02T15:56:05.511Z,41.85
2017-09-02T15:58:33.424Z,43.40
2017-09-02T16:01:01.291Z,44.04
2017-09-02T16:03:29.159Z,43.34
2017-09-02T16:05:57.008Z,43.60
2017-09-02T16:08:24.688Z,43.91
2017-09-02T16:10:52.280Z,44.89
2017-09-02T16:13:20.114Z,44.02
2017-09-02T16:15:47.985Z,44.32
2017-09-02T16:18:15.950Z,43.28
2017-09-02T16:20:43.817Z,43.49
2017-09-02T16:23:11.454Z,42.22
2017-09-02T16:25:38.987Z,42.66
2017-09-02T16:28:06.746Z,42.18
2017-09-02T16:30:34.155Z,42.06
2017-09-02T16:33:01.860Z,43.09
2017-09-02T16:35:29.688Z,42.10
2017-09-02T16:37:57.452Z,42.85
2017-09-02T16:40:24.887Z,42.54
2017-09-02T16:42:52.440Z,41.52
2017-09-02T16:45:20.245Z,42.09
2017-09-02T16:47:48.289Z,42.40
2017-09-02T16:50:16.080Z,42.35
2017-09-02T16:52:44.072Z,42.99
2017-09-02T16:55:11.498Z,42.27
2017-09-02T16:57:39.191Z,42.51
2017-09-02T17:00:06.619Z,42.21
2017-09-02T17:02:34.491Z,42.38
2017-09-02T17:05:02.389Z,44.14
2017-09-02T17:07:30.453Z,43.53
2017-09-02T17:09:58.322Z,43.56
2017-09-02T17:12:25.741Z,44.37
2017-09-02T17:14:53.133Z,44.64
2017-09-02T17:17:20.539Z,43.76
2017-09-02T17:19:48.043Z,44.04
2017-09-02T17:22:15.775Z,43.71
2017-09-02T17:24:43.190Z,43.75
2017-09-02T17:27:10.672Z,43.94
2017-09-02T17:29:38.075Z,44.93
2017-09-02T17:32:05.462Z,44.86
2017-09-02T17:34:32.851Z,45.37
2017-09-02T17:37:00.235Z,45.36
2017-09-02T17:39:27.622Z,45.32
2017-09-02T17:41:55.357Z,46.07
2017-09-02T17:44:22.814Z,46.70
2017-09-02T17:46:50.199Z,46.88
2017-09-02T17:49:17.622Z,46.78
2017-09-02T17:51:45.011Z,46.71
2017-09-02T17:54:12.403Z,46.67
2017-09-02T17:56:39.783Z,47.14
2017-09-02T17:59:07.170Z,47.98
2017-09-02T18:01:34.595Z,47.62
2017-09-02T18:04:01.986Z,47.86
2017-09-02T18:06:29.374Z,48.35
2017-09-02T18:08:57.012Z,48.25
2017-09-02T18:11:24.403Z,47.95
2017-09-02T18:13:51.790Z,48.74
2017-09-02T18:16:19.182Z,48.74
2017-09-02T18:18:46.597Z,48.31
2017-09-02T18:21:13.983Z,50.08
2017-09-02T18:23:41.414Z,51.94
2017-09-02T18:26:08.811Z,52.00
2017-09-02T18:28:36.223Z,51.63
2017-09-02T18:31:03.618Z,52.02
2017-09-02T18:33:31.007Z,51.80
2017-09-02T18:35:58.491Z,52.23
2017-09-02T18:38:25.918Z,51.65
2017-09-02T18:40:53.298Z,51.59
2017-09-02T18:43:20.759Z,53.02
2017-09-02T18:45:48.280Z,54.48
2017-09-02T18:48:15.674Z,54.63
2017-09-02T18:50:43.061Z,54.75
2017-09-02T18:53:10.454Z,55.74
2017-09-02T18:55:37.839Z,56.39
2017-09-02T18:58:05.247Z,56.81
2017-09-02T19:00:32.669Z,56.76
2017-09-02T19:03:00.055Z,56.84
2017-09-02T19:05:27.442Z,57.85
2017-09-02T19:07:54.833Z,59.99
2017-09-02T19:10:22.219Z,58.67
2017-09-02T19:12:49.630Z,58.06
2017-09-02T19:15:17.018Z,58.79
2017-09-02T19:17:45.315Z,58.53
2017-09-02T19:20:12.713Z,60.35
2017-09-02T19:22:40.098Z,60.38
2017-09-02T19:25:07.493Z,59.22
2017-09-02T19:27:34.881Z,58.48
2017-09-02T19:30:02.385Z,59.79
2017-09-02T19:32:29.783Z,59.61
2017-09-02T19:34:57.172Z,60.71
2017-09-02T19:37:24.554Z,61.18
2017-09-02T19:42:25.666Z,60.03
2017-09-02T19:44:53.123Z,59.27
2017-09-02T19:47:20.506Z,59.48
2017-09-02T19:49:47.903Z,60.89
2017-09-02T19:52:15.407Z,60.24
2017-09-02T19:54:42.794Z,59.87
2017-09-02T19:57:10.224Z,60.91
2017-09-02T19:59:37.611Z,62.10
2017-09-02T20:02:05.022Z,62.51
2017-09-02T20:04:32.406Z,61.46
2017-09-02T20:06:59.799Z,60.91
2017-09-02T20:09:27.197Z,62.26
2017-09-02T20:11:54.587Z,61.50
2017-09-02T20:14:21.971Z,60.64
2017-09-02T20:16:49.367Z,61.90
2017-09-02T20:19:16.747Z,61.95
2017-09-02T20:21:44.147Z,63.13
2017-09-02T20:24:11.546Z,63.73
2017-09-02T20:26:38.938Z,63.54
2017-09-02T20:29:06.427Z,63.40
2017-09-02T20:31:33.867Z,62.34
2017-09-02T20:34:01.247Z,62.55
2017-09-02T20:36:28.687Z,64.22
2017-09-02T20:38:56.070Z,63.87
2017-09-02T20:41:23.492Z,63.71
2017-09-02T20:43:50.854Z,63.67
2017-09-02T20:46:18.244Z,64.09
2017-09-02T20:48:45.670Z,64.33
2017-09-02T20:51:13.126Z,64.47
2017-09-02T20:53:40.524Z,63.95
2017-09-02T20:56:07.948Z,63.35
2017-09-02T20:58:35.322Z,63.51
2017-09-02T21:01:02.747Z,63.76
2017-09-02T21:03:30.207Z,63.25
2017-09-02T21:05:57.883Z,64.06
2017-09-02T21:08:25.278Z,63.97
2017-09-02T21:10:52.659Z,63.62
2017-09-02T21:13:20.050Z,62.95
2017-09-02T21:15:47.430Z,62.98
2017-09-02T21:18:14.826Z,64.83
2017-09-02T21:20:42.298Z,65.01
2017-09-02T21:23:09.687Z,63.94
2017-09-02T21:25:37.078Z,63.13
2017-09-02T21:28:04.482Z,63.68
2017-09-02T21:30:31.879Z,64.47
2017-09-02T21:32:59.283Z,65.20
2017-09-02T21:35:26.738Z,64.77
2017-09-02T21:37:54.138Z,64.69
2017-09-02T21:40:21.643Z,64.56
2017-09-02T21:42:49.103Z,64.13
2017-09-02T21:45:16.563Z,66.32
2017-09-02T21:47:44.022Z,66.44
2017-09-02T21:50:11.440Z,65.30
2017-09-02T21:52:38.935Z,65.03
2017-09-02T21:55:06.332Z,64.79
2017-09-02T21:57:33.744Z,66.16
2017-09-02T22:00:01.196Z,65.62
2017-09-02T22:02:28.579Z,65.90
2017-09-02T22:04:55.973Z,67.36
2017-09-02T22:07:23.463Z,66.74
2017-09-02T22:09:50.854Z,66.27
2017-09-02T22:12:18.246Z,65.77
2017-09-02T22:14:45.635Z,65.51
2017-09-02T22:17:13.029Z,64.86
2017-09-02T22:19:40.429Z,64.82
2017-09-02T22:22:07.815Z,64.89
2017-09-02T22:24:35.216Z,65.00
2017-09-02T22:27:02.596Z,64.60
2017-09-02T22:29:29.983Z,64.78
2017-09-02T22:31:57.386Z,67.66
2017-09-02T22:34:24.774Z,66.73
2017-09-02T22:36:52.182Z,67.20
2017-09-02T22:39:19.567Z,66.16
2017-09-02T22:41:46.958Z,67.14
2017-09-02T22:44:14.343Z,66.90
2017-09-02T22:46:41.748Z,66.25
2017-09-02T22:49:09.132Z,67.51
2017-09-02T22:51:36.543Z,66.85
2017-09-02T22:54:04.015Z,67.28
2017-09-02T22:56:31.407Z,67.21
2017-09-02T22:58:58.806Z,66.73
2017-09-02T23:01:26.196Z,66.37
2017-09-02T23:03:53.593Z,65.77
2017-09-02T23:06:20.987Z,65.86
2017-09-02T23:08:48.387Z,66.41
2017-09-02T23:11:15.763Z,65.91
2017-09-02T23:13:43.155Z,65.89
2017-09-02T23:16:10.615Z,65.51
2017-09-02T23:18:38.089Z,66.30
2017-09-02T23:21:05.475Z,67.16
2017-09-02T23:23:32.883Z,68.07
2017-09-02T23:26:00.336Z,69.02
2017-09-02T23:28:27.718Z,68.64
2017-09-02T23:30:55.121Z,68.81
2017-09-02T23:33:22.503Z,67.94
2017-09-02T23:35:49.906Z,67.94
2017-09-02T23:38:17.286Z,68.10
2017-09-02T23:40:44.744Z,67.41
2017-09-02T23:43:12.127Z,66.35
2017-09-02T23:45:39.559Z,66.56
2017-09-02T23:48:07.034Z,66.71
2017-09-02T23:50:34.490Z,67.92
2017-09-02T23:53:01.874Z,67.97
2017-09-02T23:55:29.279Z,69.14
2017-09-02T23:57:56.662Z,68.81
